createdAt,value
2022-08-09T00:01:15.366Z,72.70
2022-08-09T00:04:05.564Z,73.30
2022-08-09T00:06:32.163Z,73.70
2022-08-09T00:09:01.233Z,74.10
2022-08-09T00:12:03.854Z,74.60
2022-08-09T00:14:22.113Z,75.10
2022-08-09T00:17:04.790Z,75.30
2022-08-09T00:19:32.407Z,75.50
2022-08-09T00:22:03.671Z,75.50
2022-08-09T00:24:32.508Z,75.60
2022-08-09T00:27:01.329Z,76.00
2022-08-09T00:30:10.182Z,76.30
2022-08-09T00:32:26.781Z,76.60
2022-08-09T00:34:55.720Z,77.40
2022-08-09T00:37:24.061Z,78.50
2022-08-09T00:40:09.099Z,78.20
2022-08-09T00:44:15.691Z,78.30
2022-08-09T00:45:28.066Z,78.60
2022-08-09T00:47:55.657Z,78.80
2022-08-09T00:50:24.537Z,78.90
2022-08-09T00:52:56.252Z,79.20
2022-08-09T00:56:03.127Z,79.10
2022-08-09T00:58:14.503Z,79.00
2022-08-09T01:00:44.642Z,78.80
2022-08-09T01:03:28.443Z,78.80
2022-08-09T01:06:53.309Z,79.10
2022-08-09T01:09:56.616Z,79.30
2022-08-09T01:12:45.699Z,79.80
2022-08-09T01:15:19.916Z,80.00
2022-08-09T01:18:03.242Z,80.50
2022-08-09T01:21:17.185Z,80.80
2022-08-09T01:24:14.688Z,81.30
2022-08-09T01:27:09.715Z,82.00
2022-08-09T01:29:59.746Z,82.00
2022-08-09T01:32:36.994Z,82.20
2022-08-09T01:35:28.317Z,82.60
2022-08-09T01:38:15.425Z,82.80
2022-08-09T01:41:04.766Z,82.80
2022-08-09T01:43:50.422Z,82.50
2022-08-09T01:46:36.824Z,82.70
2022-08-09T01:49:17.594Z,82.60
2022-08-09T01:51:56.952Z,82.60
2022-08-09T01:54:32.794Z,83.20
2022-08-09T01:57:16.858Z,82.90
2022-08-09T01:59:52.032Z,82.90
2022-08-09T02:02:32.003Z,83.40
2022-08-09T02:05:15.114Z,83.30
2022-08-09T02:08:35.943Z,83.50
2022-08-09T02:10:55.771Z,83.90
2022-08-09T02:13:40.436Z,83.60
2022-08-09T02:16:12.393Z,83.50
2022-08-09T02:18:42.998Z,84.10
2022-08-09T02:21:22.168Z,84.10
2022-08-09T02:24:00.306Z,83.90
2022-08-09T02:26:34.690Z,84.30
2022-08-09T02:29:13.080Z,84.80
2022-08-09T02:31:50.838Z,84.80
2022-08-09T02:34:40.364Z,84.30
2022-08-09T02:37:15.582Z,84.20
2022-08-09T02:39:55.124Z,84.60
2022-08-09T02:42:35.446Z,84.80
2022-08-09T02:45:15.474Z,85.00
2022-08-09T02:47:57.999Z,85.00
2022-08-09T02:50:42.398Z,85.40
2022-08-09T02:53:26.648Z,85.70
2022-08-09T02:55:59.720Z,85.60
2022-08-09T02:58:36.877Z,85.40
2022-08-09T03:01:11.139Z,85.60
2022-08-09T03:04:17.258Z,85.70
2022-08-09T03:06:33.300Z,85.60
2022-08-09T03:09:02.386Z,86.10
2022-08-09T03:12:09.780Z,86.40
2022-08-09T03:14:22.088Z,86.60
2022-08-09T03:16:58.637Z,86.60
2022-08-09T03:19:58.002Z,86.70
2022-08-09T03:22:24.989Z,86.70
2022-08-09T03:25:06.266Z,86.30
2022-08-09T03:27:52.400Z,86.10
2022-08-09T03:30:29.706Z,86.60
2022-08-09T03:33:16.963Z,87.20
2022-08-09T03:36:12.303Z,87.60
2022-08-09T03:38:42.986Z,87.80
2022-08-09T03:41:18.470Z,88.00
2022-08-09T03:44:03.135Z,88.40
2022-08-09T03:46:36.553Z,88.60
2022-08-09T03:49:08.214Z,88.50
2022-08-09T03:51:58.640Z,88.80
2022-08-09T03:57:18.163Z,87.10
2022-08-09T03:59:54.614Z,87.10
2022-08-09T04:02:28.304Z,87.20
2022-08-09T04:05:06.767Z,87.50
2022-08-09T04:07:53.581Z,87.80
2022-08-09T04:10:29.501Z,88.20
2022-08-09T04:13:04.105Z,88.30
2022-08-09T04:16:17.327Z,88.00
2022-08-09T04:18:21.309Z,88.70
2022-08-09T04:20:51.269Z,88.60
2022-08-09T04:23:23.481Z,88.80
2022-08-09T04:25:53.036Z,89.00
2022-08-09T04:28:30.818Z,89.10
2022-08-09T04:31:09.269Z,89.20
2022-08-09T04:33:52.497Z,89.50
2022-08-09T04:36:30.277Z,89.80
2022-08-09T04:39:05.287Z,90.00
2022-08-09T04:41:43.433Z,90.00
2022-08-09T04:44:14.732Z,89.90
2022-08-09T04:46:58.079Z,90.00
2022-08-09T04:49:53.736Z,89.90
2022-08-09T04:52:26.240Z,89.80
2022-08-09T04:54:56.176Z,89.80
2022-08-09T04:57:25.124Z,89.80
2022-08-09T04:59:54.772Z,89.80
2022-08-09T05:02:27.091Z,90.00
2022-08-09T05:04:56.253Z,90.20
2022-08-09T05:07:25.158Z,90.40
2022-08-09T05:09:57.961Z,90.60
2022-08-09T05:12:31.055Z,90.90
2022-08-09T05:14:58.840Z,91.00
2022-08-09T05:18:50.899Z,90.90
2022-08-09T05:20:15.806Z,90.90
2022-08-09T05:25:32.660Z,90.60
2022-08-09T05:28:00.685Z,90.40
2022-08-09T05:37:59.772Z,99.90
2022-08-09T05:45:25.967Z,99.90
2022-08-09T05:48:13.579Z,99.60
2022-08-09T05:50:51.171Z,99.40
2022-08-09T06:18:46.860Z,79.20
2022-08-09T06:21:16.303Z,79.80
2022-08-09T06:23:57.843Z,79.60
2022-08-09T06:26:29.129Z,79.50
2022-08-09T06:29:00.770Z,79.00
2022-08-09T06:31:40.633Z,78.50
2022-08-09T06:34:23.399Z,77.60
2022-08-09T06:36:57.289Z,77.10
2022-08-09T06:39:49.338Z,76.20
2022-08-09T06:44:59.099Z,75.70
2022-08-09T06:47:30.217Z,75.00
2022-08-09T06:50:14.703Z,75.00
2022-08-09T06:52:48.801Z,75.10
2022-08-09T06:55:23.167Z,74.20
2022-08-09T06:58:03.624Z,73.50
2022-08-09T07:00:55.528Z,73.30
2022-08-09T07:03:28.050Z,72.60
2022-08-09T07:06:04.740Z,79.00
2022-08-09T07:08:37.112Z,71.80
2022-08-09T07:11:08.359Z,73.00
2022-08-09T07:13:45.170Z,76.40
2022-08-09T07:16:41.708Z,83.20
2022-08-09T07:51:09.935Z,62.40
2022-08-09T07:54:05.190Z,77.60
2022-08-09T07:56:36.973Z,83.00
2022-08-09T07:59:16.019Z,78.50
2022-08-09T08:02:01.236Z,76.50
2022-08-09T08:04:32.330Z,86.40
2022-08-09T08:07:15.417Z,58.20
2022-08-09T08:15:14.430Z,55.40
2022-08-09T08:17:54.927Z,56.00
2022-08-09T08:20:32.792Z,54.40
2022-08-09T08:23:16.868Z,54.50
2022-08-09T08:25:50.176Z,54.60
2022-08-09T08:31:10.642Z,52.40
2022-08-09T08:33:53.081Z,52.00
2022-08-09T08:36:28.860Z,50.30
2022-08-09T08:38:58.434Z,50.60
2022-08-09T08:41:42.099Z,49.40
2022-08-09T08:44:27.191Z,49.90
2022-08-09T08:47:02.250Z,48.80
2022-08-09T08:49:47.250Z,47.30
2022-08-09T08:55:23.137Z,47.00
2022-08-09T08:57:57.326Z,47.20
2022-08-09T09:00:30.467Z,46.20
2022-08-09T09:03:08.357Z,47.20
2022-08-09T09:06:00.149Z,46.10
2022-08-09T09:08:38.158Z,46.00
2022-08-09T09:11:13.866Z,44.80
2022-08-09T09:13:56.328Z,43.00
2022-08-09T09:16:33.916Z,43.00
2022-08-09T09:19:40.674Z,41.70
2022-08-09T09:22:11.483Z,41.80
2022-08-09T09:24:44.017Z,41.20
2022-08-09T09:28:03.748Z,40.80
2022-08-09T09:30:39.979Z,40.20
2022-08-09T09:33:15.447Z,40.10
2022-08-09T09:36:02.679Z,39.50
2022-08-09T09:38:52.621Z,39.00
2022-08-09T09:41:28.049Z,39.00
2022-08-09T09:44:11.927Z,39.10
2022-08-09T09:46:50.773Z,39.30
2022-08-09T09:49:32.257Z,38.80
2022-08-09T09:52:35.687Z,38.00
2022-08-09T09:55:27.524Z,38.60
2022-08-09T09:58:15.543Z,37.80
2022-08-09T10:01:03.218Z,38.20
2022-08-09T10:03:39.709Z,37.50
2022-08-09T10:08:44.268Z,35.80
2022-08-09T10:12:01.277Z,35.20
2022-08-09T10:14:33.394Z,35.80
2022-08-09T10:17:39.554Z,36.40
2022-08-09T10:20:04.251Z,35.00
2022-08-09T10:22:41.076Z,35.10
2022-08-09T10:25:14.226Z,34.50
2022-08-09T10:27:57.845Z,35.10
2022-08-09T10:32:03.835Z,34.50
2022-08-09T10:34:07.862Z,35.00
2022-08-09T10:36:11.628Z,33.20
2022-08-09T10:41:28.360Z,32.40
2022-08-09T10:44:00.960Z,34.20
2022-08-09T10:47:04.030Z,32.70
2022-08-09T10:50:04.673Z,33.10
2022-08-09T10:53:26.859Z,33.00
2022-08-09T10:58:55.951Z,33.00
2022-08-09T11:03:13.616Z,34.10
2022-08-09T11:07:00.030Z,30.80
2022-08-09T11:09:47.883Z,30.40
2022-08-09T11:12:18.902Z,30.90
2022-08-09T11:15:19.087Z,31.10
2022-08-09T11:17:53.675Z,32.30
2022-08-09T11:20:50.098Z,31.80
2022-08-09T11:23:23.789Z,32.00
2022-08-09T11:25:54.881Z,33.10
2022-08-09T11:28:30.729Z,32.30
2022-08-09T11:31:50.316Z,33.20
2022-08-09T11:34:51.621Z,32.60
2022-08-09T11:37:40.730Z,30.10
2022-08-09T11:40:13.088Z,29.80
2022-08-09T11:42:51.739Z,29.40
2022-08-09T11:45:42.219Z,30.40
2022-08-09T11:48:26.976Z,29.40
2022-08-09T11:52:48.842Z,30.10
2022-08-09T11:54:01.210Z,30.10
2022-08-09T11:56:41.752Z,29.80
2022-08-09T11:59:12.418Z,29.80
2022-08-09T12:02:34.657Z,29.60
2022-08-09T12:04:38.076Z,29.80
2022-08-09T12:07:08.341Z,28.50
2022-08-09T12:09:36.662Z,28.50
2022-08-09T12:12:28.825Z,29.20
2022-08-09T12:17:44.454Z,29.90
2022-08-09T12:20:34.608Z,29.60
2022-08-09T12:23:04.758Z,30.00
2022-08-09T12:25:37.563Z,29.40
2022-08-09T12:28:58.183Z,30.10
2022-08-09T12:31:59.181Z,28.30
2022-08-09T12:34:38.805Z,28.70
2022-08-09T12:37:23.507Z,28.60
2022-08-09T12:40:08.870Z,29.50
2022-08-09T12:42:37.483Z,29.40
2022-08-09T12:45:32.251Z,29.70
2022-08-09T12:47:54.754Z,28.60
2022-08-09T12:50:23.763Z,29.80
2022-08-09T12:53:18.082Z,29.50
2022-08-09T12:56:14.738Z,29.30
2022-08-09T12:58:28.904Z,30.30
2022-08-09T13:00:57.661Z,30.80
2022-08-09T13:03:57.097Z,30.70
2022-08-09T13:06:36.669Z,30.30
2022-08-09T13:09:25.974Z,31.20
2022-08-09T13:12:06.437Z,30.40
2022-08-09T13:14:43.717Z,30.70
2022-08-09T13:17:44.056Z,30.10
2022-08-09T13:28:34.117Z,50.00
2022-08-09T13:33:54.170Z,57.20
2022-08-09T13:41:17.736Z,27.70
2022-08-09T13:42:12.985Z,28.10
2022-08-09T13:44:43.211Z,27.80
2022-08-09T13:47:33.000Z,28.60
2022-08-09T13:50:12.504Z,27.40
2022-08-09T13:55:13.432Z,27.90
2022-08-09T13:57:55.878Z,27.60
2022-08-09T14:00:28.550Z,27.60
2022-08-09T14:03:16.821Z,26.50
2022-08-09T14:05:58.821Z,28.20
2022-08-09T14:08:33.011Z,28.10
2022-08-09T14:11:01.338Z,27.70
2022-08-09T14:14:23.195Z,27.30
2022-08-09T14:16:28.197Z,28.60
2022-08-09T14:18:58.466Z,28.60
2022-08-09T14:21:29.136Z,27.50
2022-08-09T14:24:00.999Z,27.10
2022-08-09T14:26:34.178Z,26.60
2022-08-09T14:29:07.382Z,26.50
2022-08-09T14:31:50.175Z,26.00
2022-08-09T14:34:32.392Z,26.70
2022-08-09T14:37:07.560Z,25.80
2022-08-09T14:39:46.815Z,27.30
2022-08-09T14:42:31.647Z,27.00
2022-08-09T14:46:46.037Z,27.60
2022-08-09T14:48:02.102Z,27.50
2022-08-09T14:50:34.550Z,28.00
2022-08-09T14:53:12.058Z,28.00
2022-08-09T14:55:47.846Z,27.80
2022-08-09T14:58:18.689Z,28.40
2022-08-09T15:00:48.207Z,28.40
2022-08-09T15:03:20.137Z,28.40
2022-08-09T15:05:50.302Z,28.60
2022-08-09T15:08:23.846Z,28.30
2022-08-09T15:11:01.092Z,28.60
2022-08-09T15:13:48.305Z,28.90
2022-08-09T15:16:17.790Z,28.70
2022-08-09T15:18:48.989Z,27.80
2022-08-09T15:21:56.132Z,29.00
2022-08-09T15:24:12.555Z,28.20
2022-08-09T15:26:46.378Z,29.00
2022-08-09T15:30:56.218Z,29.30
2022-08-09T15:32:04.113Z,29.30
2022-08-09T15:34:35.384Z,29.40
2022-08-09T15:37:38.000Z,29.40
2022-08-09T15:40:16.028Z,28.90
2022-08-09T15:42:50.722Z,29.60
2022-08-09T15:45:29.740Z,29.80
2022-08-09T15:48:05.480Z,29.60
2022-08-09T15:50:46.110Z,29.40
2022-08-09T15:53:18.843Z,29.30
2022-08-09T15:56:21.487Z,30.60
2022-08-09T15:58:49.882Z,29.40
2022-08-09T16:01:18.890Z,29.70
2022-08-09T16:03:47.170Z,29.50
2022-08-09T16:06:32.661Z,30.00
2022-08-09T16:09:05.788Z,30.40
2022-08-09T16:11:34.081Z,30.60
2022-08-09T16:14:06.831Z,30.80
2022-08-09T16:16:37.908Z,31.30
2022-08-09T16:19:08.041Z,32.30
2022-08-09T16:21:38.426Z,32.00
2022-08-09T16:24:13.022Z,32.20
2022-08-09T16:26:55.200Z,32.20
2022-08-09T16:29:37.671Z,32.50
2022-08-09T16:32:33.451Z,32.30
2022-08-09T16:35:00.006Z,33.00
2022-08-09T16:37:54.550Z,33.10
2022-08-09T16:40:29.727Z,33.00
2022-08-09T16:43:07.993Z,32.90
2022-08-09T16:45:43.786Z,33.20
2022-08-09T16:48:42.025Z,33.10
2022-08-09T16:51:08.374Z,33.10
2022-08-09T16:54:25.135Z,33.40
2022-08-09T16:56:33.816Z,33.40
2022-08-09T16:59:06.507Z,33.30
2022-08-09T17:01:38.797Z,33.50
2022-08-09T17:04:06.884Z,33.10
2022-08-09T17:08:41.302Z,33.00
2022-08-09T17:09:44.549Z,33.20
2022-08-09T17:12:10.279Z,33.10
2022-08-09T17:14:37.641Z,33.40
2022-08-09T17:17:17.253Z,34.00
2022-08-09T17:20:30.413Z,33.30
2022-08-09T17:22:49.924Z,33.40
2022-08-09T17:25:21.982Z,33.70
2022-08-09T17:27:55.657Z,34.00
2022-08-09T17:30:29.096Z,33.80
2022-08-09T17:33:05.619Z,34.00
2022-08-09T17:35:50.757Z,34.20
2022-08-09T17:38:30.789Z,34.50
2022-08-09T17:41:03.293Z,34.30
2022-08-09T17:43:35.801Z,34.70
2022-08-09T17:46:09.757Z,34.80
2022-08-09T17:48:52.169Z,34.70
2022-08-09T17:51:22.023Z,34.70
2022-08-09T17:53:55.071Z,34.90
2022-08-09T17:56:28.907Z,35.30
2022-08-09T17:59:03.287Z,35.30
2022-08-09T18:01:57.951Z,35.30
2022-08-09T18:04:25.713Z,35.70
2022-08-09T18:06:55.285Z,35.80
2022-08-09T18:09:40.431Z,35.80
2022-08-09T18:12:20.066Z,36.00
2022-08-09T18:14:55.012Z,36.10
2022-08-09T18:18:03.308Z,36.30
2022-08-09T18:20:56.855Z,37.00
2022-08-09T18:23:07.185Z,36.70
2022-08-09T18:25:50.509Z,37.10
2022-08-09T18:30:35.021Z,37.40
2022-08-09T18:31:08.429Z,37.40
2022-08-09T18:33:36.529Z,38.30
2022-08-09T18:36:04.539Z,38.50
2022-08-09T18:38:32.196Z,39.20
2022-08-09T18:40:59.929Z,39.80
2022-08-09T18:43:28.270Z,39.70
2022-08-09T18:46:49.768Z,40.20
2022-08-09T18:48:52.640Z,39.90
2022-08-09T18:51:20.749Z,39.90
2022-08-09T18:54:08.634Z,40.50
2022-08-09T18:56:45.544Z,40.60
2022-08-09T18:59:22.642Z,40.50
2022-08-09T19:01:55.334Z,40.80
2022-08-09T19:04:34.653Z,40.80
2022-08-09T19:07:02.932Z,41.00
2022-08-09T19:10:13.265Z,41.30
2022-08-09T19:12:21.713Z,41.40
2022-08-09T19:14:51.882Z,41.60
2022-08-09T19:17:21.026Z,41.80
2022-08-09T19:19:49.280Z,42.70
2022-08-09T19:22:26.627Z,42.10
2022-08-09T19:25:11.557Z,42.10
2022-08-09T19:27:42.392Z,42.10
2022-08-09T19:30:22.911Z,42.50
2022-08-09T19:32:56.057Z,43.00
2022-08-09T19:35:26.721Z,43.10
2022-08-09T19:37:57.700Z,43.20
2022-08-09T19:40:34.220Z,43.20
2022-08-09T19:43:05.215Z,43.40
2022-08-09T19:45:40.298Z,43.70
2022-08-09T19:48:10.733Z,44.10
2022-08-09T19:50:50.273Z,44.20
2022-08-09T19:53:20.677Z,44.80
2022-08-09T19:56:02.470Z,44.90
2022-08-09T19:58:34.101Z,45.10
2022-08-09T20:01:02.057Z,45.60
2022-08-09T20:04:18.421Z,45.80
2022-08-09T20:06:22.937Z,46.10
2022-08-09T20:08:56.538Z,47.00
2022-08-09T20:11:27.157Z,48.40
2022-08-09T20:14:15.260Z,49.20
2022-08-09T20:16:54.168Z,50.00
2022-08-09T20:19:48.455Z,51.30
2022-08-09T20:22:14.157Z,52.60
2022-08-09T20:24:43.106Z,53.00
2022-08-09T20:27:22.311Z,53.60
2022-08-09T20:29:50.046Z,55.10
2022-08-09T20:32:30.414Z,54.50
2022-08-09T20:35:01.674Z,54.40
2022-08-09T20:37:37.812Z,54.50
2022-08-09T20:40:26.571Z,55.00
2022-08-09T20:43:00.087Z,56.00
2022-08-09T20:46:00.611Z,56.40
2022-08-09T20:48:32.715Z,57.00
2022-08-09T20:51:02.915Z,57.20
2022-08-09T20:53:37.678Z,57.00
2022-08-09T20:56:21.202Z,58.00
2022-08-09T20:58:54.598Z,57.70
2022-08-09T21:01:34.034Z,58.00
2022-08-09T21:05:54.868Z,58.00
2022-08-09T21:07:12.043Z,58.60
2022-08-09T21:09:56.550Z,58.30
2022-08-09T21:12:32.315Z,58.70
2022-08-09T21:15:03.003Z,58.90
2022-08-09T21:18:11.062Z,58.60
2022-08-09T21:20:25.782Z,59.10
2022-08-09T21:22:54.836Z,59.70
2022-08-09T21:25:44.015Z,60.40
2022-08-09T21:28:36.517Z,60.50
2022-08-09T21:31:17.556Z,61.10
2022-08-09T21:33:52.776Z,61.30
2022-08-09T21:36:28.852Z,62.10
2022-08-09T21:38:59.612Z,61.80
2022-08-09T21:42:03.445Z,62.90
2022-08-09T21:44:34.006Z,62.80
2022-08-09T21:47:17.556Z,63.50
2022-08-09T21:49:48.320Z,64.60
2022-08-09T21:52:20.879Z,64.20
2022-08-09T21:55:03.615Z,64.90
2022-08-09T21:57:58.741Z,65.10
2022-08-09T22:00:33.865Z,65.80
2022-08-09T22:03:19.179Z,65.60
2022-08-09T22:05:54.105Z,66.60
2022-08-09T22:08:25.860Z,66.30
2022-08-09T22:11:49.237Z,66.00
2022-08-09T22:13:43.971Z,67.10
2022-08-09T22:16:12.247Z,67.20
2022-08-09T22:18:52.204Z,67.80
2022-08-09T22:21:27.455Z,67.10
2022-08-09T22:24:17.239Z,67.80
2022-08-09T22:26:51.432Z,67.20
2022-08-09T22:29:28.845Z,67.20
2022-08-09T22:32:07.091Z,67.00
2022-08-09T22:35:02.489Z,67.90
2022-08-09T22:37:40.458Z,69.00
2022-08-09T22:40:19.966Z,69.50
2022-08-09T22:42:48.255Z,69.30
2022-08-09T22:48:10.618Z,69.70
2022-08-09T22:48:11.358Z,70.10
2022-08-09T22:50:52.847Z,70.50
2022-08-09T22:53:20.999Z,71.40
2022-08-09T22:56:29.999Z,71.40
2022-08-09T22:58:40.780Z,71.60
2022-08-09T23:01:10.061Z,71.90
2022-08-09T23:04:03.935Z,72.20
2022-08-09T23:06:35.689Z,72.60
2022-08-09T23:09:06.506Z,73.10
2022-08-09T23:11:34.238Z,73.30
2022-08-09T23:14:03.205Z,73.50
2022-08-09T23:16:32.006Z,73.70
2022-08-09T23:18:59.940Z,74.30
2022-08-09T23:21:32.760Z,74.00
2022-08-09T23:24:06.574Z,73.70
2022-08-09T23:26:38.985Z,73.40
2022-08-09T23:29:11.641Z,73.20
2022-08-09T23:31:40.234Z,73.70
2022-08-09T23:34:08.347Z,74.30
2022-08-09T23:36:36.951Z,74.70
2022-08-09T23:39:07.236Z,74.80
2022-08-09T23:41:35.747Z,74.90
2022-08-09T23:44:04.261Z,75.20
2022-08-09T23:46:32.853Z,75.40
2022-08-09T23:49:01.234Z,75.50
2022-08-09T23:51:32.305Z,75.40
2022-08-09T23:54:02.434Z,75.70
2022-08-09T23:56:53.378Z,75.80
2022-08-09T23:59:24.197Z,75.80
